Time;durP1;ratioP1;P1;durP2;ratioP2;P2;SDS_P1;SDS_P2;PMS_P1;PMS_P2;Temp;Humidity;BMP_temperature;BMP_pressure;BME280_temperature;BME280_humidity;BME280_pressure;Samples;Min_cycle;Max_cycle;Signal;HPM_P1;HPM_P2
2022/10/07 00:01:45;;;;;;;8.45;3.50;;;;;;;13.60;58.98;93844.66;2050994;69;20146;-80
2022/10/07 00:04:11;;;;;;;8.40;3.25;;;;;;;13.72;58.91;93842.66;2051395;70;20153;-81
2022/10/07 00:06:37;;;;;;;7.43;3.85;;;;;;;13.54;59.30;93852.75;2051304;70;20134;-79
2022/10/07 00:09:02;;;;;;;13.13;4.32;;;;;;;13.48;60.62;93853.09;2050728;70;20190;-81
2022/10/07 00:11:29;;;;;;;10.70;3.50;;;;;;;13.47;59.98;93848.78;2051125;69;20586;-80
2022/10/07 00:13:58;;;;;;;6.97;3.53;;;;;;;13.20;60.74;93852.59;2047523;70;20610;-81
2022/10/07 00:16:30;;;;;;;6.07;3.47;;;;;;;13.25;60.84;93850.81;2048079;70;20234;-83
2022/10/07 00:18:58;;;;;;;8.50;4.25;;;;;;;13.37;59.61;93857.28;2048772;70;20222;-79
2022/10/07 00:21:26;;;;;;;9.63;3.15;;;;;;;13.50;58.81;93852.47;2050317;70;20155;-81
2022/10/07 00:23:51;;;;;;;8.65;3.67;;;;;;;13.39;59.97;93857.44;2048122;70;20152;-79
2022/10/07 00:26:20;;;;;;;9.32;3.58;;;;;;;13.43;59.29;93854.91;2048084;70;20139;-81
2022/10/07 00:28:47;;;;;;;10.70;3.50;;;;;;;13.47;58.84;93860.09;2050140;70;20633;-77
2022/10/07 00:31:21;;;;;;;8.20;3.42;;;;;;;13.28;60.57;93854.50;2047514;70;20557;-80
2022/10/07 00:33:47;;;;;;;9.75;3.95;;;;;;;13.36;59.92;93857.91;2047899;70;20259;-79
2022/10/07 00:36:24;;;;;;;6.40;3.33;;;;;;;13.27;59.70;93850.94;2047655;70;20618;-80
2022/10/07 00:38:58;;;;;;;7.55;3.15;;;;;;;13.23;61.32;93850.66;2047954;70;20154;-81
2022/10/07 00:41:27;;;;;;;8.10;4.13;;;;;;;13.18;60.34;93852.44;2047520;70;20154;-78
2022/10/07 00:43:53;;;;;;;9.32;3.72;;;;;;;13.29;59.20;93853.91;2050210;70;20126;-78
2022/10/07 00:46:28;;;;;;;7.95;3.75;;;;;;;13.12;60.47;93843.53;2047874;70;20562;-77
2022/10/07 00:49:00;;;;;;;4.93;3.05;;;;;;;13.16;60.25;93840.25;2047847;70;20151;-79
2022/10/07 00:51:27;;;;;;;8.30;3.50;;;;;;;13.21;60.36;93842.00;2050074;70;20182;-82
2022/10/07 00:53:55;;;;;;;6.93;3.35;;;;;;;13.14;60.99;93838.00;2047990;70;20598;-81
2022/10/07 00:56:22;;;;;;;11.70;3.78;;;;;;;13.14;60.82;93825.97;2049891;70;20234;-80
2022/10/07 00:58:49;;;;;;;7.60;3.60;;;;;;;13.17;59.91;93827.59;2049970;70;20280;-78
2022/10/07 01:01:18;;;;;;;6.60;3.47;;;;;;;13.04;60.89;93828.81;2047722;70;20147;-78
2022/10/07 01:03:46;;;;;;;5.80;3.35;;;;;;;13.12;60.50;93823.75;2047690;70;20161;-77
2022/10/07 01:06:12;;;;;;;7.55;3.35;;;;;;;13.15;60.47;93821.81;2047819;70;20134;-76
2022/10/07 01:08:39;;;;;;;11.15;3.35;;;;;;;13.20;59.30;93818.66;2049932;70;20236;-79
2022/10/07 01:11:12;;;;;;;6.68;3.08;;;;;;;13.25;58.65;93819.69;2049937;70;20150;-78
2022/10/07 01:13:43;;;;;;;5.18;3.42;;;;;;;13.06;60.88;93822.59;2048869;70;20221;-77
2022/10/07 01:16:29;;;;;;;5.68;3.42;;;;;;;13.01;60.59;93821.53;2051053;70;20186;-80
2022/10/07 01:19:09;;;;;;;4.68;3.28;;;;;;;12.78;62.07;93812.84;2050999;70;20146;-81
2022/10/07 01:21:42;;;;;;;7.65;3.85;;;;;;;12.84;61.33;93814.03;2053373;70;20290;-80
2022/10/07 01:24:50;;;;;;;5.18;3.53;;;;;;;12.91;59.93;93807.44;2050528;70;20157;-78
2022/10/07 01:27:20;;;;;;;4.88;3.00;;;;;;;12.98;60.25;93800.88;2051008;70;20237;-80
2022/10/07 01:29:55;;;;;;;9.88;4.68;;;;;;;12.71;60.79;93806.03;2050277;70;20189;-78
2022/10/07 01:32:43;;;;;;;6.93;3.70;;;;;;;12.51;62.43;93804.59;2053081;70;20234;-77
2022/10/07 01:35:20;;;;;;;7.68;3.40;;;;;;;12.52;61.77;93798.34;2050845;70;20196;-79
2022/10/07 01:37:51;;;;;;;6.50;3.47;;;;;;;12.58;62.55;93793.13;2048169;70;20155;-82
2022/10/07 01:40:31;;;;;;;11.77;3.55;;;;;;;12.77;61.25;93800.81;2051748;69;20146;-84
2022/10/07 01:43:00;;;;;;;7.35;3.15;;;;;;;12.71;60.76;93792.66;2048003;70;20149;-78
2022/10/07 01:45:31;;;;;;;12.30;3.10;;;;;;;12.76;61.01;93787.28;2053289;70;20146;-82
2022/10/07 01:47:58;;;;;;;10.20;3.03;;;;;;;12.79;60.96;93775.53;2053620;70;20566;-81
2022/10/07 01:50:27;;;;;;;3.60;2.75;;;;;;;12.60;62.05;93781.22;2048122;70;20142;-83
2022/10/07 01:53:02;;;;;;;5.70;3.20;;;;;;;12.67;61.57;93778.22;2051338;70;20241;-79
2022/10/07 01:55:57;;;;;;;7.15;3.13;;;;;;;12.32;63.65;93779.94;2050813;70;20158;-80
2022/10/07 01:58:35;;;;;;;6.32;3.78;;;;;;;12.55;61.80;93777.38;2050479;70;20606;-80
2022/10/07 02:01:16;;;;;;;6.57;3.50;;;;;;;12.50;61.93;93780.50;2052886;70;20245;-80
2022/10/07 02:04:00;;;;;;;8.15;3.60;;;;;;;12.44;60.62;93769.53;2051277;70;20150;-80
2022/10/07 02:06:53;;;;;;;12.27;3.72;;;;;;;12.46;61.27;93770.44;2050450;70;20152;-82
2022/10/07 02:09:24;;;;;;;6.40;3.90;;;;;;;12.16;63.21;93771.81;2050437;70;20594;-79
2022/10/07 02:12:14;;;;;;;8.95;3.67;;;;;;;12.30;62.20;93772.09;2050421;70;20154;-80
2022/10/07 02:14:53;;;;;;;6.03;3.50;;;;;;;12.32;60.77;93760.94;2050789;70;20170;-78
2022/10/07 02:17:24;;;;;;;10.15;3.65;;;;;;;12.38;61.46;93760.63;2050403;70;20668;-77
2022/10/07 02:19:55;;;;;;;6.00;3.40;;;;;;;11.81;65.73;93762.88;2051103;70;20146;-81
2022/10/07 02:22:26;;;;;;;7.38;3.30;;;;;;;12.11;62.99;93758.75;2048351;70;20228;-78
2022/10/07 02:24:57;;;;;;;6.07;3.30;;;;;;;12.12;62.52;93756.66;2051617;70;20138;-81
2022/10/07 02:27:31;;;;;;;7.45;3.97;;;;;;;12.10;62.71;93753.72;2053917;69;20142;-81
2022/10/07 02:30:12;;;;;;;5.25;3.10;;;;;;;11.99;63.29;93755.03;2053776;70;20441;-77
2022/10/07 02:32:43;;;;;;;10.85;3.40;;;;;;;12.11;62.63;93755.94;2051224;70;20669;-81
2022/10/07 02:35:48;;;;;;;9.43;3.50;;;;;;;12.26;61.98;93754.13;2051021;70;20196;-80
2022/10/07 02:38:17;;;;;;;4.90;3.35;;;;;;;12.18;62.39;93752.19;2053713;70;20488;-75
2022/10/07 02:40:57;;;;;;;6.20;3.83;;;;;;;12.09;63.71;93750.13;2053782;70;20150;-78
2022/10/07 02:43:38;;;;;;;10.10;3.75;;;;;;;12.09;62.88;93749.38;2048258;70;20325;-81
2022/10/07 02:46:09;;;;;;;6.00;3.20;;;;;;;12.11;63.00;93741.06;2051695;70;20487;-78
2022/10/07 02:48:45;;;;;;;11.70;3.55;;;;;;;12.19;62.80;93742.41;2051768;70;20185;-81
2022/10/07 02:51:17;;;;;;;6.80;3.10;;;;;;;12.34;61.57;93743.41;2051711;70;20147;-80
2022/10/07 02:53:48;;;;;;;4.65;3.03;;;;;;;12.32;61.76;93732.69;2053830;70;20181;-80
2022/10/07 02:56:16;;;;;;;7.97;3.65;;;;;;;12.22;62.67;93743.28;2051463;70;20151;-80
2022/10/07 02:58:45;;;;;;;6.43;3.05;;;;;;;12.11;63.33;93741.06;2045365;70;20135;-81
2022/10/07 03:01:22;;;;;;;8.57;3.50;;;;;;;12.28;61.53;93734.47;2048180;70;20499;-80
2022/10/07 03:03:48;;;;;;;6.05;3.45;;;;;;;12.23;62.03;93741.94;2053911;70;20605;-81
2022/10/07 03:06:17;;;;;;;10.45;3.78;;;;;;;12.18;62.58;93738.06;2051786;70;20143;-81
2022/10/07 03:08:44;;;;;;;8.30;3.25;;;;;;;12.23;62.76;93735.53;2053762;70;20154;-80
2022/10/07 03:11:09;;;;;;;6.60;3.00;;;;;;;12.26;62.34;93731.53;2048190;70;20146;-81
2022/10/07 03:13:35;;;;;;;6.93;3.20;;;;;;;12.14;62.72;93729.34;2048041;70;20177;-81
2022/10/07 03:16:04;;;;;;;6.82;3.00;;;;;;;12.14;62.72;93734.97;2053536;70;20173;-80
2022/10/07 03:18:30;;;;;;;11.20;3.50;;;;;;;12.09;62.77;93733.19;2051685;70;20161;-79
2022/10/07 03:21:13;;;;;;;6.25;3.00;;;;;;;12.10;62.95;93733.94;2050916;70;20162;-80
2022/10/07 03:23:39;;;;;;;6.85;3.05;;;;;;;12.28;62.15;93729.59;2053690;70;20241;-79
2022/10/07 03:26:05;;;;;;;10.05;3.17;;;;;;;12.10;62.76;93726.22;2048414;70;20146;-79
2022/10/07 03:28:36;;;;;;;5.80;2.97;;;;;;;12.01;63.11;93723.41;2053838;70;20241;-79
2022/10/07 03:31:08;;;;;;;5.05;3.10;;;;;;;12.18;61.80;93720.41;2053631;70;20166;-79
2022/10/07 03:33:37;;;;;;;8.73;3.65;;;;;;;12.06;63.14;93725.19;2053815;70;20154;-78
2022/10/07 03:36:07;;;;;;;6.13;3.30;;;;;;;11.97;64.76;93718.22;2053516;70;20554;-77
2022/10/07 03:38:33;;;;;;;6.07;3.20;;;;;;;12.05;62.70;93721.63;2053710;70;20179;-81
2022/10/07 03:41:00;;;;;;;5.85;3.05;;;;;;;12.03;63.18;93715.09;2051561;70;20162;-81
2022/10/07 03:43:27;;;;;;;8.75;2.83;;;;;;;12.10;62.00;93717.75;2048191;70;20582;-81
2022/10/07 03:45:52;;;;;;;10.65;3.10;;;;;;;12.01;63.71;93717.78;2053563;70;20146;-81
2022/10/07 03:48:18;;;;;;;4.57;2.95;;;;;;;12.04;62.42;93714.47;2051572;70;20146;-81
2022/10/07 03:50:51;;;;;;;8.10;2.90;;;;;;;12.11;61.61;93710.75;2051504;70;20242;-80
2022/10/07 03:53:19;;;;;;;4.25;3.20;;;;;;;12.10;61.89;93709.28;2050848;70;20157;-80
2022/10/07 03:55:45;;;;;;;5.63;2.75;;;;;;;12.06;62.81;93711.81;2050957;70;20142;-78
2022/10/07 03:58:14;;;;;;;5.82;3.10;;;;;;;12.12;61.92;93705.84;2048263;70;20198;-81
2022/10/07 04:00:40;;;;;;;6.88;3.13;;;;;;;12.04;62.08;93708.09;2050827;70;20217;-80
2022/10/07 04:03:06;;;;;;;4.38;3.00;;;;;;;11.98;63.81;93702.03;2053691;69;20205;-81
2022/10/07 04:05:33;;;;;;;5.25;2.95;;;;;;;11.98;62.85;93699.94;2050893;70;20146;-82
2022/10/07 04:07:59;;;;;;;5.43;3.40;;;;;;;12.03;62.33;93693.25;2053647;70;20182;-79
2022/10/07 04:10:28;;;;;;;7.55;3.90;;;;;;;11.83;63.55;93697.44;2050848;70;20154;-80
2022/10/07 04:12:54;;;;;;;6.72;3.67;;;;;;;11.95;61.82;93689.84;2048039;70;20196;-78
2022/10/07 04:15:19;;;;;;;9.70;3.50;;;;;;;11.88;62.86;93699.97;2050752;70;20158;-81
2022/10/07 04:17:47;;;;;;;7.15;3.38;;;;;;;11.83;63.68;93700.28;2048134;70;20142;-81
2022/10/07 04:20:16;;;;;;;8.73;5.20;;;;;;;11.78;62.93;93701.28;2048166;70;20151;-77
2022/10/07 04:22:42;;;;;;;10.45;5.15;;;;;;;11.66;63.75;93696.25;2051894;70;20205;-78
2022/10/07 04:27:59;;;;;;;8.82;4.45;;;;;;;11.84;62.64;93694.03;2053649;70;20193;-78
2022/10/07 04:30:28;;;;;;;9.63;4.32;;;;;;;11.88;62.51;93690.75;2050866;70;20142;-80
2022/10/07 04:32:53;;;;;;;10.48;3.45;;;;;;;11.74;63.93;93676.34;2050791;70;20138;-80
2022/10/07 04:35:22;;;;;;;7.72;5.47;;;;;;;11.80;63.77;93687.31;2047996;70;20146;-81
2022/10/07 04:37:52;;;;;;;11.63;5.15;;;;;;;11.71;63.80;93686.00;2048217;70;20178;-79
2022/10/07 04:40:22;;;;;;;7.60;4.70;;;;;;;11.81;62.87;93683.91;2050835;70;20156;-75
2022/10/07 04:45:36;;;;;;;8.80;5.35;;;;;;;11.85;61.75;93686.28;2051049;70;20150;-77
2022/10/07 04:48:10;;;;;;;9.25;5.40;;;;;;;11.75;63.44;93677.81;2050635;70;20178;-75
2022/10/07 04:50:37;;;;;;;7.15;4.13;;;;;;;11.75;63.21;93674.25;2051272;70;20680;-79
2022/10/07 04:53:07;;;;;;;4.85;3.28;;;;;;;11.72;63.19;93670.53;2053575;69;20139;-80
2022/10/07 04:55:41;;;;;;;7.40;3.70;;;;;;;11.73;63.51;93683.34;2051324;70;20154;-79
2022/10/07 04:58:08;;;;;;;8.45;3.25;;;;;;;11.75;63.03;93669.34;2053562;70;20585;-79
2022/10/07 05:00:35;;;;;;;5.05;4.03;;;;;;;11.63;64.13;93669.22;2053390;70;20166;-81
2022/10/07 05:03:02;;;;;;;9.55;5.93;;;;;;;11.67;63.16;93675.16;2050809;70;20161;-81
2022/10/07 05:05:28;;;;;;;6.05;4.00;;;;;;;11.59;64.24;93665.34;2053534;70;20166;-76
2022/10/07 05:07:54;;;;;;;8.68;7.28;;;;;;;11.50;65.19;93666.09;2050679;70;20143;-77
2022/10/07 05:10:21;;;;;;;6.25;3.60;;;;;;;11.65;63.37;93666.56;2053469;70;20682;-77
2022/10/07 05:12:47;;;;;;;8.25;3.20;;;;;;;11.59;63.68;93671.00;2050614;70;20170;-80
2022/10/07 05:15:13;;;;;;;6.57;3.10;;;;;;;11.56;64.13;93675.03;2050499;70;20178;-78
2022/10/07 05:17:42;;;;;;;6.60;3.08;;;;;;;11.59;63.93;93676.63;2048072;70;20223;-77
2022/10/07 05:20:09;;;;;;;5.05;3.10;;;;;;;11.68;62.76;93673.84;2050703;70;20174;-76
2022/10/07 05:22:36;;;;;;;17.42;13.05;;;;;;;11.59;63.34;93673.81;2051287;70;20158;-80
2022/10/07 05:25:01;;;;;;;5.18;3.35;;;;;;;11.51;65.45;93671.16;2047926;70;20225;-81
2022/10/07 05:27:31;;;;;;;5.68;3.22;;;;;;;11.61;62.92;93659.88;2050817;70;20166;-81
2022/10/07 05:29:57;;;;;;;14.00;8.30;;;;;;;11.59;64.30;93665.34;2050622;70;20213;-81
2022/10/07 05:32:23;;;;;;;7.35;5.80;;;;;;;11.61;63.97;93666.25;2053627;70;20529;-82
2022/10/07 05:34:48;;;;;;;11.35;7.00;;;;;;;11.44;64.87;93664.34;2047835;70;20261;-81
2022/10/07 05:37:14;;;;;;;10.95;6.28;;;;;;;11.40;64.99;93661.22;2051277;70;20138;-80
2022/10/07 05:39:41;;;;;;;8.88;4.53;;;;;;;11.36;65.29;93658.13;2047817;70;20150;-79
2022/10/07 05:42:12;;;;;;;6.32;3.95;;;;;;;11.49;64.34;93659.72;2053376;70;20155;-81
2022/10/07 05:44:43;;;;;;;8.15;4.05;;;;;;;11.55;63.45;93662.28;2047914;70;20162;-79
2022/10/07 05:47:10;;;;;;;6.75;4.22;;;;;;;11.43;65.33;93664.94;2050619;70;20217;-80
2022/10/07 05:49:36;;;;;;;7.80;4.32;;;;;;;11.50;64.21;93661.22;2050513;70;20147;-80
2022/10/07 05:52:03;;;;;;;7.82;3.03;;;;;;;11.55;64.08;93660.19;2050514;70;20162;-79
2022/10/07 05:54:31;;;;;;;8.25;4.25;;;;;;;11.45;64.92;93663.03;2047784;70;20158;-79
2022/10/07 05:56:58;;;;;;;8.27;3.55;;;;;;;11.56;64.07;93660.94;2051050;70;20260;-79
2022/10/07 05:59:24;;;;;;;6.90;3.13;;;;;;;11.56;63.73;93669.38;2050668;70;20142;-79
2022/10/07 06:01:50;;;;;;;8.75;3.78;;;;;;;11.58;64.57;93663.88;2051041;70;20157;-81
2022/10/07 06:04:19;;;;;;;6.82;3.90;;;;;;;11.55;64.08;93667.91;2051096;70;20170;-80
2022/10/07 06:06:46;;;;;;;17.38;4.25;;;;;;;11.56;64.12;93658.84;2051246;70;20147;-81
2022/10/07 06:14:48;;;;;;;15.02;3.97;;;;;;;11.62;62.87;93653.63;2053721;70;20547;-80
2022/10/07 06:17:13;;;;;;;11.07;3.80;;;;;;;11.70;62.89;93662.69;2051709;70;20158;-80
2022/10/07 06:19:41;;;;;;;18.73;4.80;;;;;;;11.58;64.15;93661.06;2053880;69;20594;-79
2022/10/07 06:22:08;;;;;;;11.50;4.63;;;;;;;11.51;64.68;93670.44;2048428;70;20188;-79
2022/10/07 06:24:36;;;;;;;8.30;4.45;;;;;;;11.48;63.71;93663.88;2054000;70;20207;-78
2022/10/07 06:27:02;;;;;;;5.68;3.67;;;;;;;11.55;63.28;93670.72;2051148;70;20610;-80
2022/10/07 06:29:28;;;;;;;9.93;3.30;;;;;;;11.63;63.07;93660.75;2048475;70;20554;-80
2022/10/07 06:31:54;;;;;;;7.20;3.17;;;;;;;11.69;63.12;93666.09;2051125;70;20146;-76
2022/10/07 06:34:19;;;;;;;16.65;4.80;;;;;;;11.62;63.29;93656.44;2051815;70;20154;-78
2022/10/07 06:36:45;;;;;;;9.45;4.55;;;;;;;11.25;65.42;93669.22;2048445;70;20245;-80
2022/10/07 06:39:11;;;;;;;16.80;6.95;;;;;;;11.41;63.98;93667.63;2051879;70;20176;-79
2022/10/07 06:41:40;;;;;;;15.02;5.43;;;;;;;11.60;63.54;93672.50;2051175;70;20253;-79
2022/10/07 06:44:20;;;;;;;7.82;4.78;;;;;;;11.60;63.15;93669.69;2048414;70;20213;-81
2022/10/07 06:46:46;;;;;;;9.90;4.57;;;;;;;11.50;64.32;93666.09;2051154;70;20146;-81
2022/10/07 06:49:11;;;;;;;6.88;3.75;;;;;;;11.60;63.83;93676.06;2048953;70;20643;-80
2022/10/07 06:51:37;;;;;;;7.15;3.72;;;;;;;11.55;63.16;93667.91;2048889;70;20630;-76
2022/10/07 06:54:03;;;;;;;9.32;4.00;;;;;;;11.59;63.72;93665.34;2053941;70;20149;-78
2022/10/07 06:56:30;;;;;;;5.63;3.30;;;;;;;11.51;65.11;93670.44;2053812;70;20234;-81
2022/10/07 06:58:56;;;;;;;5.78;3.83;;;;;;;11.66;63.52;93661.66;2048203;70;20154;-78
2022/10/07 07:01:31;;;;;;;8.75;5.22;;;;;;;11.50;64.89;93668.94;2050809;70;20533;-79
2022/10/07 07:03:59;;;;;;;15.60;6.82;;;;;;;11.57;63.53;93665.22;2053720;70;20617;-75
2022/10/07 07:06:24;;;;;;;11.38;6.85;;;;;;;11.61;63.78;93659.88;2051537;70;20142;-77
2022/10/07 07:08:50;;;;;;;6.97;4.90;;;;;;;11.57;64.53;93660.31;2053742;70;20142;-79
2022/10/07 07:11:35;;;;;;;7.90;4.25;;;;;;;11.64;63.68;93670.72;2048205;70;20570;-78
2022/10/07 07:14:13;;;;;;;6.93;4.32;;;;;;;11.47;63.62;93665.22;2053467;70;20189;-78
2022/10/07 07:16:41;;;;;;;7.75;4.10;;;;;;;11.62;64.31;93667.00;2053454;70;20162;-76
2022/10/07 07:19:10;;;;;;;6.95;3.35;;;;;;;11.61;65.57;93665.53;2048073;70;20166;-78
2022/10/07 07:21:38;;;;;;;5.55;3.60;;;;;;;11.68;62.60;93665.38;2048238;70;20181;-78
2022/10/07 07:24:05;;;;;;;8.05;3.78;;;;;;;11.71;63.17;93666.97;2053756;69;20229;-77
2022/10/07 07:26:32;;;;;;;6.47;3.40;;;;;;;11.80;62.69;93662.66;2053659;70;20157;-78
2022/10/07 07:29:04;;;;;;;4.28;3.10;;;;;;;11.78;62.38;93664.63;2050903;70;20217;-78
2022/10/07 07:31:36;;;;;;;8.98;3.47;;;;;;;11.80;62.96;93665.50;2050793;70;20551;-79
2022/10/07 07:34:06;;;;;;;7.40;3.88;;;;;;;11.86;62.53;93659.56;2050977;70;20221;-75
2022/10/07 07:36:35;;;;;;;5.70;3.90;;;;;;;11.55;64.53;93654.53;2050932;70;20170;-74
2022/10/07 07:39:05;;;;;;;6.93;3.60;;;;;;;11.63;63.94;93657.94;2048096;70;20146;-76
2022/10/07 07:41:34;;;;;;;11.13;4.70;;;;;;;11.54;63.94;93658.69;2050983;70;20242;-77
2022/10/07 07:44:03;;;;;;;5.78;3.40;;;;;;;11.74;64.22;93650.97;2053681;70;20306;-79
2022/10/07 07:46:35;;;;;;;7.00;3.15;;;;;;;11.82;62.62;93640.28;2053542;70;20562;-78
2022/10/07 07:49:01;;;;;;;7.05;3.30;;;;;;;12.04;64.31;93643.19;2050896;70;20248;-78
2022/10/07 07:51:27;;;;;;;7.80;3.55;;;;;;;12.48;64.07;93644.81;2050925;70;20146;-78
2022/10/07 07:53:54;;;;;;;10.38;4.95;;;;;;;12.75;63.73;93642.44;2050931;70;20162;-77
2022/10/07 07:56:21;;;;;;;8.77;4.88;;;;;;;12.72;64.62;93635.16;2051490;70;20158;-77
2022/10/07 07:58:47;;;;;;;8.63;5.75;;;;;;;12.64;64.77;93629.69;2050874;70;20241;-78
2022/10/07 08:01:17;;;;;;;10.25;5.28;;;;;;;13.45;65.13;93631.56;2047965;70;20605;-74
2022/10/07 08:03:46;;;;;;;12.65;5.28;;;;;;;13.86;63.71;93630.59;2050845;70;20252;-76
2022/10/07 08:06:15;;;;;;;16.17;8.07;;;;;;;14.47;62.74;93628.72;2053598;70;20143;-78
2022/10/07 08:08:43;;;;;;;14.60;7.90;;;;;;;14.78;60.88;93617.16;2050786;70;20550;-75
2022/10/07 08:11:16;;;;;;;12.70;7.25;;;;;;;14.67;59.67;93623.59;2053463;70;20138;-78
2022/10/07 08:13:43;;;;;;;14.20;4.82;;;;;;;15.79;58.90;93615.91;2053305;69;20213;-78
2022/10/07 08:16:14;;;;;;;12.05;5.35;;;;;;;16.07;57.15;93616.00;2050600;70;20142;-75
2022/10/07 08:18:49;;;;;;;12.93;5.40;;;;;;;15.75;57.87;93613.56;2053569;70;20236;-77
2022/10/07 08:21:17;;;;;;;7.82;5.15;;;;;;;16.25;56.71;93608.47;2051209;69;20149;-75
2022/10/07 08:23:46;;;;;;;10.68;5.50;;;;;;;16.60;56.55;93607.50;2050807;70;20135;-77
2022/10/07 08:26:13;;;;;;;9.30;5.07;;;;;;;16.48;54.79;93604.72;2047984;70;20668;-77
2022/10/07 08:28:39;;;;;;;11.13;4.72;;;;;;;17.19;56.35;93602.78;2050782;70;20305;-78
2022/10/07 08:31:18;;;;;;;11.73;5.38;;;;;;;17.53;53.63;93594.47;2050742;70;20475;-81
2022/10/07 08:33:46;;;;;;;9.13;5.00;;;;;;;17.73;53.18;93600.41;2051466;70;20131;-80
2022/10/07 08:36:18;;;;;;;8.00;4.88;;;;;;;18.08;52.19;93588.59;2051440;70;20595;-79
2022/10/07 08:38:44;;;;;;;12.70;5.70;;;;;;;18.18;52.30;93586.22;2051495;70;20225;-80
2022/10/07 08:41:19;;;;;;;9.38;5.43;;;;;;;18.49;50.82;93579.06;2051612;70;20221;-81
2022/10/07 08:43:49;;;;;;;7.18;4.07;;;;;;;18.79;50.80;93571.19;2051376;70;20228;-80
2022/10/07 08:46:21;;;;;;;4.25;2.78;;;;;;;19.63;49.29;93578.31;2051154;70;20182;-81
2022/10/07 08:48:54;;;;;;;6.50;2.90;;;;;;;19.47;48.28;93569.06;2051178;70;20606;-80
2022/10/07 08:51:25;;;;;;;6.93;2.78;;;;;;;19.72;47.73;93574.41;2051329;70;20193;-81
2022/10/07 08:53:57;;;;;;;6.30;2.92;;;;;;;20.83;44.99;93570.09;2051238;69;20285;-81
2022/10/07 08:56:24;;;;;;;5.53;2.90;;;;;;;20.26;45.46;93569.41;2051261;70;20589;-75
2022/10/07 08:59:19;;;;;;;5.38;3.33;;;;;;;19.73;44.59;93560.88;2051200;70;20164;-77
2022/10/07 09:02:04;;;;;;;5.35;3.20;;;;;;;20.06;47.08;93562.88;2051150;70;20141;-79
2022/10/07 09:04:42;;;;;;;5.72;2.90;;;;;;;20.74;46.00;93551.91;2051347;70;20134;-78
2022/10/07 09:07:12;;;;;;;6.18;2.75;;;;;;;20.54;44.86;93546.16;2051158;70;20146;-80
2022/10/07 09:09:44;;;;;;;5.60;3.10;;;;;;;20.79;46.06;93545.66;2051078;70;20234;-79
2022/10/07 09:12:21;;;;;;;5.43;2.97;;;;;;;21.46;45.07;93541.56;2051153;70;20197;-78
2022/10/07 09:14:51;;;;;;;7.03;2.85;;;;;;;21.17;43.25;93533.38;2050956;70;20142;-78
2022/10/07 09:17:28;;;;;;;9.02;2.33;;;;;;;21.85;42.74;93519.16;2051166;70;20157;-78
2022/10/07 09:20:16;;;;;;;4.20;2.40;;;;;;;21.77;40.27;93519.66;2051855;70;20578;-79
2022/10/07 09:22:56;;;;;;;4.90;2.17;;;;;;;22.03;41.44;93519.72;2051346;70;20142;-79
2022/10/07 09:25:27;;;;;;;4.35;2.30;;;;;;;21.97;40.40;93511.69;2050932;70;20181;-79
2022/10/07 09:27:53;;;;;;;3.85;2.30;;;;;;;22.47;39.58;93514.66;2051287;70;20154;-77
2022/10/07 09:30:21;;;;;;;5.35;2.28;;;;;;;22.34;39.99;93509.97;2051014;70;20162;-80
2022/10/07 09:32:50;;;;;;;5.30;2.20;;;;;;;22.99;39.52;93499.63;2050967;70;20261;-80
2022/10/07 09:35:20;;;;;;;4.30;2.38;;;;;;;24.03;38.53;93508.75;2051234;69;20146;-78
2022/10/07 09:37:56;;;;;;;4.05;2.30;;;;;;;23.69;37.11;93500.03;2051176;70;20566;-79
2022/10/07 09:41:13;;;;;;;5.13;2.28;;;;;;;23.50;36.56;93498.81;2051417;70;20273;-78
2022/10/07 09:43:23;;;;;;;3.67;2.25;;;;;;;22.87;35.61;93490.66;2051322;70;20146;-80
2022/10/07 09:45:48;;;;;;;5.78;2.40;;;;;;;22.47;36.18;93493.84;2051354;70;20153;-81
2022/10/07 09:48:24;;;;;;;3.53;2.00;;;;;;;22.89;37.26;93485.72;2051683;69;20139;-77
2022/10/07 09:50:50;;;;;;;4.07;2.22;;;;;;;24.08;36.61;93487.28;2051983;70;20166;-81
2022/10/07 09:53:23;;;;;;;3.25;2.10;;;;;;;24.81;35.24;93482.38;2048389;70;20697;-77
2022/10/07 09:55:54;;;;;;;11.75;2.33;;;;;;;24.15;33.91;93481.69;2051721;70;20169;-78
2022/10/07 09:58:30;;;;;;;4.22;2.22;;;;;;;24.45;33.84;93462.22;2051811;69;20194;-77
2022/10/07 10:00:59;;;;;;;5.60;2.40;;;;;;;25.17;34.66;93467.25;2051573;70;20209;-81
2022/10/07 10:03:30;;;;;;;5.85;2.53;;;;;;;25.65;33.97;93468.78;2048451;70;20615;-81
2022/10/07 10:06:08;;;;;;;5.05;2.45;;;;;;;26.01;34.16;93471.56;2051657;70;20573;-80
2022/10/07 10:08:42;;;;;;;3.65;2.10;;;;;;;25.98;33.50;93461.41;2051785;70;20158;-84
2022/10/07 10:11:29;;;;;;;7.70;2.65;;;;;;;26.25;33.89;93445.22;2051692;69;20646;-80
2022/10/07 10:13:54;;;;;;;4.13;2.30;;;;;;;25.74;33.18;93448.03;2051533;70;20161;-81
2022/10/07 10:16:27;;;;;;;6.10;2.33;;;;;;;26.87;32.38;93444.59;2051504;70;20147;-81
2022/10/07 10:18:57;;;;;;;5.93;2.50;;;;;;;27.15;31.16;93434.81;2051721;70;20260;-83
2022/10/07 10:21:34;;;;;;;3.05;1.98;;;;;;;26.54;32.93;93429.03;2054038;70;20138;-85
2022/10/07 10:24:04;;;;;;;5.55;2.15;;;;;;;26.89;32.10;93426.53;2051956;69;20176;-78
2022/10/07 10:26:47;;;;;;;6.55;2.50;;;;;;;26.90;32.15;93428.03;2051984;70;20147;-77
2022/10/07 10:29:21;;;;;;;6.65;2.60;;;;;;;28.02;31.11;93429.78;2048064;70;20177;-80
2022/10/07 10:31:59;;;;;;;5.93;2.40;;;;;;;27.61;31.18;93417.88;2051349;70;20181;-79
2022/10/07 10:35:07;;;;;;;6.65;2.50;;;;;;;27.84;29.73;93418.81;2051586;70;20143;-76
2022/10/07 10:37:38;;;;;;;6.22;2.53;;;;;;;27.59;30.56;93417.88;2038726;70;20219;-86
2022/10/07 10:40:34;;;;;;;9.13;2.53;;;;;;;29.37;28.69;93415.94;2034353;70;20263;-79
2022/10/07 10:43:25;;;;;;;6.43;2.35;;;;;;;29.12;27.33;93401.38;2030806;70;20171;-85
2022/10/07 10:46:09;;;;;;;5.47;2.38;;;;;;;29.97;28.17;93405.81;2037459;70;20163;-81
2022/10/07 10:48:45;;;;;;;7.18;2.35;;;;;;;30.80;26.67;93402.00;2036911;70;20159;-85
2022/10/07 10:52:05;;;;;;;7.43;2.83;;;;;;;32.62;24.58;93392.63;2037031;70;20167;-83
2022/10/07 10:54:59;;;;;;;7.00;2.25;;;;;;;33.33;22.40;93390.28;2017215;71;20262;-77
2022/10/07 10:57:46;;;;;;;7.03;2.22;;;;;;;33.17;23.85;93387.59;2020197;71;20150;-86
2022/10/07 11:00:22;;;;;;;6.30;2.15;;;;;;;34.87;23.07;93383.31;2020932;71;20233;-86
2022/10/07 11:03:16;;;;;;;5.25;2.13;;;;;;;36.50;21.99;93381.75;2020502;71;20232;-84
2022/10/07 11:05:43;;;;;;;7.90;2.10;;;;;;;36.88;20.32;93371.16;2021441;71;20149;-85
2022/10/07 11:08:31;;;;;;;6.05;2.10;;;;;;;37.27;20.32;93376.66;2029070;70;20275;-85
2022/10/07 11:11:10;;;;;;;7.68;2.17;;;;;;;37.58;19.82;93366.94;2035112;70;20155;-86
2022/10/07 11:13:47;;;;;;;10.02;2.40;;;;;;;39.25;18.38;93366.41;2034416;70;20198;-80
2022/10/07 11:16:20;;;;;;;5.47;1.92;;;;;;;39.88;17.81;93358.75;2033669;70;20151;-84
2022/10/07 11:19:18;;;;;;;9.57;2.20;;;;;;;40.99;17.79;93360.75;2034053;70;20316;-82
2022/10/07 11:21:49;;;;;;;6.55;1.90;;;;;;;39.64;17.97;93354.56;2034063;70;20564;-80
2022/10/07 11:24:27;;;;;;;6.15;1.90;;;;;;;40.67;17.41;93347.41;2034537;70;20132;-88
2022/10/07 11:27:25;;;;;;;10.18;2.28;;;;;;;37.88;18.08;93332.94;2035477;70;20261;-89
2022/10/07 11:30:19;;;;;;;11.68;2.33;;;;;;;40.67;17.33;93342.22;2050241;70;20142;-84
2022/10/07 11:33:17;;;;;;;9.75;2.60;;;;;;;40.63;15.57;93333.53;2051434;70;20170;-83
2022/10/07 11:36:02;;;;;;;15.38;3.22;;;;;;;41.51;16.02;93326.63;2050735;70;20156;-83
2022/10/07 11:38:32;;;;;;;12.85;2.58;;;;;;;41.14;15.22;93325.38;2049626;70;20585;-83
2022/10/07 11:41:18;;;;;;;12.93;2.63;;;;;;;41.87;15.16;93324.88;2050342;70;20153;-84
2022/10/07 11:43:56;;;;;;;12.77;2.80;;;;;;;41.13;14.99;93306.22;2050913;70;20138;-82
2022/10/07 11:46:29;;;;;;;15.77;2.40;;;;;;;41.13;16.23;93301.03;2050837;70;20637;-82
2022/10/07 11:49:23;;;;;;;8.52;1.98;;;;;;;39.71;14.77;93296.09;2050911;70;20146;-84
2022/10/07 11:52:10;;;;;;;15.80;2.75;;;;;;;41.38;15.29;93294.03;2051026;70;20223;-84
2022/10/07 11:54:44;;;;;;;11.93;2.45;;;;;;;41.76;14.87;93284.81;2050903;70;20153;-82
2022/10/07 11:57:23;;;;;;;13.15;2.60;;;;;;;41.47;14.61;93283.25;2050979;70;20185;-81
2022/10/07 11:59:57;;;;;;;16.20;2.90;;;;;;;42.19;14.83;93276.75;2048436;70;20151;-80
2022/10/07 12:02:28;;;;;;;14.40;2.67;;;;;;;42.79;14.34;93266.25;2051143;70;20122;-81
2022/10/07 12:05:01;;;;;;;7.50;1.90;;;;;;;41.58;14.76;93254.63;2051797;70;20182;-78
2022/10/07 12:07:54;;;;;;;9.00;2.20;;;;;;;42.40;14.42;93253.50;2053258;70;20162;-76